createdAt,value
2019-01-13T00:00:51.063Z,14.00
2019-01-13T00:03:20.604Z,11.12
2019-01-13T00:05:50.187Z,8.10
2019-01-13T00:08:19.747Z,10.50
2019-01-13T00:10:49.560Z,11.83
2019-01-13T00:13:19.086Z,6.70
2019-01-13T00:15:48.692Z,13.05
2019-01-13T00:18:18.744Z,8.50
2019-01-13T00:20:48.343Z,12.05
2019-01-13T00:23:18.135Z,9.90
2019-01-13T00:25:47.723Z,16.77
2019-01-13T00:28:17.318Z,13.03
2019-01-13T00:30:46.865Z,7.78
2019-01-13T00:33:16.473Z,13.22
2019-01-13T00:35:46.296Z,10.88
2019-01-13T00:38:16.375Z,11.57
2019-01-13T00:40:45.923Z,8.65
2019-01-13T00:43:15.740Z,11.65
2019-01-13T00:45:45.838Z,12.10
2019-01-13T00:48:15.439Z,13.30
2019-01-13T00:50:44.980Z,19.23
2019-01-13T00:53:14.839Z,12.90
2019-01-13T00:55:44.660Z,10.15
2019-01-13T00:58:14.250Z,20.57
2019-01-13T01:00:44.091Z,10.10
2019-01-13T01:03:13.653Z,10.70
2019-01-13T01:05:43.226Z,11.38
2019-01-13T01:08:14.093Z,13.75
2019-01-13T01:10:43.726Z,15.60
2019-01-13T01:13:13.308Z,17.50
2019-01-13T01:15:43.115Z,15.65
2019-01-13T01:18:12.804Z,16.52
2019-01-13T01:20:43.183Z,10.53
2019-01-13T01:23:13.101Z,11.65
2019-01-13T01:25:42.914Z,13.50
2019-01-13T01:28:12.803Z,14.28
2019-01-13T01:30:42.344Z,14.20
2019-01-13T01:33:11.973Z,13.22
2019-01-13T01:35:41.528Z,11.85
2019-01-13T01:38:11.084Z,10.08
2019-01-13T01:40:40.698Z,13.88
2019-01-13T01:43:10.287Z,11.70
2019-01-13T01:45:39.843Z,14.60
2019-01-13T01:48:09.448Z,11.25
2019-01-13T01:50:38.977Z,11.08
2019-01-13T01:53:08.575Z,13.70
2019-01-13T01:55:38.388Z,9.50
2019-01-13T01:58:08.433Z,14.98
2019-01-13T02:00:40.695Z,11.75
2019-01-13T02:03:09.506Z,17.90
2019-01-13T02:05:39.103Z,12.10
2019-01-13T02:08:08.701Z,15.68
2019-01-13T02:10:38.355Z,15.05
2019-01-13T02:13:07.947Z,17.15
2019-01-13T02:15:37.478Z,18.75
2019-01-13T02:18:07.615Z,11.63
2019-01-13T02:20:37.209Z,17.45
2019-01-13T02:23:06.823Z,17.30
2019-01-13T02:25:36.394Z,19.77
2019-01-13T02:28:06.249Z,13.60
2019-01-13T02:30:35.773Z,17.82
2019-01-13T02:33:05.600Z,16.93
2019-01-13T02:35:35.165Z,14.00
2019-01-13T02:38:05.031Z,17.55
2019-01-13T02:40:34.579Z,14.98
2019-01-13T02:43:04.426Z,16.52
2019-01-13T02:45:34.282Z,15.20
2019-01-13T02:48:04.077Z,19.45
2019-01-13T02:50:33.684Z,14.18
2019-01-13T02:53:03.495Z,17.57
2019-01-13T02:55:33.312Z,23.12
2019-01-13T02:58:02.903Z,21.30
2019-01-13T03:00:32.745Z,20.50
2019-01-13T03:03:02.325Z,20.40
2019-01-13T03:05:32.102Z,17.90
2019-01-13T03:08:01.645Z,18.98
2019-01-13T03:10:31.754Z,25.10
2019-01-13T03:13:01.308Z,20.30
2019-01-13T03:15:30.896Z,19.57
2019-01-13T03:18:00.475Z,21.10
2019-01-13T03:20:30.314Z,25.85
2019-01-13T03:23:00.417Z,20.97
2019-01-13T03:25:30.200Z,22.90
2019-01-13T03:28:00.579Z,20.77
2019-01-13T03:30:30.660Z,23.65
2019-01-13T03:33:00.254Z,19.95
2019-01-13T03:35:29.801Z,17.00
2019-01-13T03:37:59.379Z,21.27
2019-01-13T03:40:29.186Z,23.12
2019-01-13T03:42:59.046Z,19.48
2019-01-13T03:45:28.836Z,22.02
2019-01-13T03:47:58.417Z,18.15
2019-01-13T03:50:28.519Z,17.95
2019-01-13T03:52:58.337Z,15.95
2019-01-13T03:55:28.162Z,15.65
2019-01-13T03:57:57.739Z,17.17
2019-01-13T04:00:27.442Z,17.35
2019-01-13T04:02:57.792Z,29.23
2019-01-13T04:05:27.593Z,19.73
2019-01-13T04:07:57.178Z,21.52
2019-01-13T04:10:27.308Z,21.75
2019-01-13T04:12:57.178Z,19.65
2019-01-13T04:15:58.853Z,18.92
2019-01-13T04:18:29.225Z,27.65
2019-01-13T04:20:59.018Z,25.20
2019-01-13T04:23:28.920Z,22.60
2019-01-13T04:25:58.503Z,27.52
2019-01-13T04:28:28.157Z,23.22
2019-01-13T04:30:57.685Z,32.25
2019-01-13T04:33:27.321Z,24.67
2019-01-13T04:35:57.250Z,26.37
2019-01-13T04:38:27.169Z,38.42
2019-01-13T04:40:57.009Z,35.75
2019-01-13T04:43:26.670Z,31.70
2019-01-13T04:45:56.487Z,34.98
2019-01-13T04:48:26.083Z,34.15
2019-01-13T04:50:55.612Z,31.00
2019-01-13T04:53:25.223Z,28.77
2019-01-13T04:55:54.815Z,31.57
2019-01-13T04:58:24.383Z,32.90
2019-01-13T05:00:54.712Z,36.28
2019-01-13T05:03:24.305Z,27.60
2019-01-13T05:05:54.360Z,29.00
2019-01-13T05:08:23.972Z,26.80
2019-01-13T05:10:53.798Z,29.10
2019-01-13T05:13:23.336Z,32.55
2019-01-13T05:15:52.948Z,32.78
2019-01-13T05:18:22.525Z,33.30
2019-01-13T05:20:52.742Z,29.82
2019-01-13T05:23:22.268Z,32.05
2019-01-13T05:25:52.110Z,31.37
2019-01-13T05:28:21.949Z,31.73
2019-01-13T05:30:51.750Z,29.50
2019-01-13T05:33:21.308Z,29.82
2019-01-13T05:35:51.368Z,33.05
2019-01-13T05:38:20.942Z,33.15
2019-01-13T05:40:50.790Z,29.37
2019-01-13T05:43:20.644Z,31.25
2019-01-13T05:45:51.605Z,37.40
2019-01-13T05:48:21.411Z,28.90
2019-01-13T05:50:51.430Z,31.10
2019-01-13T05:53:21.260Z,30.72
2019-01-13T05:55:50.850Z,28.15
2019-01-13T05:58:20.742Z,33.25
2019-01-13T06:00:50.288Z,28.17
2019-01-13T06:03:20.356Z,32.50
2019-01-13T06:05:49.915Z,30.95
2019-01-13T06:08:19.751Z,29.70
2019-01-13T06:10:49.580Z,30.08
2019-01-13T06:13:19.146Z,27.27
2019-01-13T06:15:49.185Z,29.25
2019-01-13T06:18:19.308Z,28.17
2019-01-13T06:20:49.139Z,34.27
2019-01-13T06:23:18.959Z,26.10
2019-01-13T06:25:48.799Z,21.57
2019-01-13T06:28:18.367Z,31.37
2019-01-13T06:30:48.183Z,23.57
2019-01-13T06:33:18.023Z,27.15
2019-01-13T06:35:47.585Z,23.50
2019-01-13T06:38:17.714Z,21.90
2019-01-13T06:40:47.509Z,21.75
2019-01-13T06:43:17.378Z,19.95
2019-01-13T06:45:46.925Z,21.17
2019-01-13T06:48:17.031Z,20.37
2019-01-13T06:50:46.855Z,20.57
2019-01-13T06:53:16.553Z,19.17
2019-01-13T06:55:46.627Z,21.05
2019-01-13T06:58:16.209Z,19.02
2019-01-13T07:00:46.036Z,19.05
2019-01-13T07:03:15.593Z,16.62
2019-01-13T07:05:45.419Z,21.10
2019-01-13T07:08:15.512Z,18.82
2019-01-13T07:10:45.319Z,16.15
2019-01-13T07:13:14.879Z,16.75
2019-01-13T07:15:44.471Z,16.65
2019-01-13T07:18:14.350Z,14.93
2019-01-13T07:20:43.933Z,15.75
2019-01-13T07:23:13.533Z,17.07
2019-01-13T07:25:43.625Z,14.23
2019-01-13T07:28:13.196Z,22.90
2019-01-13T07:30:42.773Z,23.95
2019-01-13T07:33:12.331Z,25.90
2019-01-13T07:35:42.208Z,20.88
2019-01-13T07:38:11.777Z,21.07
2019-01-13T07:40:41.347Z,17.30
2019-01-13T07:43:11.404Z,15.43
2019-01-13T07:45:40.963Z,13.20
2019-01-13T07:48:10.815Z,11.88
2019-01-13T07:50:40.394Z,13.20
2019-01-13T07:53:10.238Z,11.90
2019-01-13T07:55:40.094Z,9.98
2019-01-13T07:58:09.954Z,10.40
2019-01-13T08:00:39.479Z,9.65
2019-01-13T08:03:09.048Z,7.78
2019-01-13T08:05:38.557Z,7.95
2019-01-13T08:08:11.452Z,6.65
2019-01-13T08:10:41.011Z,6.17
2019-01-13T08:13:10.917Z,7.55
2019-01-13T08:15:40.452Z,5.35
2019-01-13T08:18:10.318Z,6.72
2019-01-13T08:20:39.863Z,7.45
2019-01-13T08:23:09.439Z,4.90
2019-01-13T08:25:39.257Z,4.08
2019-01-13T08:28:08.851Z,4.70
2019-01-13T08:30:38.727Z,5.55
2019-01-13T08:33:08.243Z,4.65
2019-01-13T08:35:38.058Z,4.85
2019-01-13T08:38:07.615Z,3.17
2019-01-13T08:40:37.158Z,3.92
2019-01-13T08:43:06.890Z,3.55
2019-01-13T08:45:36.701Z,4.60
2019-01-13T08:48:06.252Z,4.42
2019-01-13T08:50:36.127Z,4.40
2019-01-13T08:53:05.639Z,6.62
2019-01-13T08:55:35.779Z,4.72
2019-01-13T08:58:05.784Z,4.90
2019-01-13T09:00:35.970Z,9.18
2019-01-13T09:03:06.911Z,6.47
2019-01-13T09:05:36.551Z,6.72
2019-01-13T09:08:07.389Z,6.50
2019-01-13T09:10:36.926Z,5.33
2019-01-13T09:13:06.736Z,4.40
2019-01-13T09:15:36.950Z,5.75
2019-01-13T09:18:06.793Z,5.58
2019-01-13T09:20:36.452Z,5.47
2019-01-13T09:23:06.507Z,4.30
2019-01-13T09:25:37.568Z,5.62
2019-01-13T09:28:08.239Z,5.15
2019-01-13T09:30:38.052Z,4.25
2019-01-13T09:33:07.850Z,4.78
2019-01-13T09:35:37.689Z,5.45
2019-01-13T09:38:07.245Z,5.03
2019-01-13T09:40:37.074Z,5.97
2019-01-13T09:43:07.308Z,6.00
2019-01-13T09:45:37.380Z,6.40
2019-01-13T09:48:07.207Z,6.22
2019-01-13T09:50:36.798Z,6.53
2019-01-13T09:53:06.677Z,8.10
2019-01-13T09:55:36.306Z,7.40
2019-01-13T09:58:05.852Z,8.00
2019-01-13T10:00:37.065Z,7.05
2019-01-13T10:03:07.901Z,8.13
2019-01-13T10:05:38.284Z,7.00
2019-01-13T10:08:08.970Z,9.13
2019-01-13T10:10:38.826Z,7.40
2019-01-13T10:13:08.383Z,8.25
2019-01-13T10:15:38.346Z,7.87
2019-01-13T10:18:11.287Z,7.58
2019-01-13T10:20:41.171Z,7.75
2019-01-13T10:23:10.755Z,7.05
2019-01-13T10:25:40.835Z,8.93
2019-01-13T10:28:10.914Z,6.70
2019-01-13T10:30:40.704Z,11.63
2019-01-13T10:33:10.543Z,8.28
2019-01-13T10:35:40.091Z,7.60
2019-01-13T10:38:09.661Z,9.38
2019-01-13T10:40:39.495Z,8.40
2019-01-13T10:43:09.336Z,7.92
2019-01-13T10:45:38.930Z,10.25
2019-01-13T10:48:08.496Z,10.93
2019-01-13T10:50:38.043Z,10.30
2019-01-13T10:53:08.741Z,11.28
2019-01-13T10:55:38.598Z,10.35
2019-01-13T10:58:11.288Z,11.50
2019-01-13T11:00:41.091Z,10.10
2019-01-13T11:03:10.699Z,11.00
2019-01-13T11:05:40.519Z,9.40
2019-01-13T11:08:11.647Z,8.20
2019-01-13T11:10:41.771Z,9.15
2019-01-13T11:13:11.324Z,8.20
2019-01-13T11:15:41.149Z,8.43
2019-01-13T11:18:10.784Z,7.10
2019-01-13T11:20:40.918Z,7.67
2019-01-13T11:23:10.829Z,7.45
2019-01-13T11:25:40.682Z,6.50
2019-01-13T11:28:10.370Z,6.60
2019-01-13T11:30:39.949Z,6.37
2019-01-13T11:33:09.996Z,6.70
2019-01-13T11:35:39.847Z,6.17
2019-01-13T11:38:10.068Z,5.87
2019-01-13T11:40:41.143Z,7.35
2019-01-13T11:43:11.296Z,5.22
2019-01-13T11:45:40.982Z,4.67
2019-01-13T11:48:10.579Z,5.05
2019-01-13T11:50:40.442Z,5.20
2019-01-13T11:53:10.303Z,4.25
2019-01-13T11:55:39.836Z,4.67
2019-01-13T11:58:09.483Z,5.25
2019-01-13T12:00:44.226Z,5.10
2019-01-13T12:03:17.110Z,5.50
2019-01-13T12:05:46.107Z,5.90
2019-01-13T12:08:15.691Z,5.53
2019-01-13T12:10:45.235Z,5.95
2019-01-13T12:13:14.795Z,7.00
2019-01-13T12:15:44.348Z,6.15
2019-01-13T12:18:13.899Z,5.55
2019-01-13T12:20:43.495Z,4.80
2019-01-13T12:23:13.101Z,4.58
2019-01-13T12:25:42.971Z,3.90
2019-01-13T12:28:12.550Z,3.95
2019-01-13T12:30:42.364Z,3.27
2019-01-13T12:33:12.299Z,3.83
2019-01-13T12:35:41.868Z,3.47
2019-01-13T12:38:11.681Z,3.58
2019-01-13T12:40:41.287Z,3.67
2019-01-13T12:43:11.686Z,4.05
2019-01-13T12:45:41.266Z,3.87
2019-01-13T12:48:11.503Z,3.10
2019-01-13T12:50:41.400Z,3.35
2019-01-13T12:53:11.011Z,3.20
2019-01-13T12:55:40.852Z,3.90
2019-01-13T12:58:10.677Z,5.37
2019-01-13T13:00:40.223Z,4.15
2019-01-13T13:03:09.808Z,2.25
2019-01-13T13:05:39.400Z,3.25
2019-01-13T13:08:09.034Z,2.90
2019-01-13T13:10:47.080Z,5.75
2019-01-13T13:13:16.855Z,5.08
2019-01-13T13:15:46.393Z,5.78
2019-01-13T13:18:16.221Z,5.78
2019-01-13T13:20:45.770Z,10.13
2019-01-13T13:23:15.367Z,6.50
2019-01-13T13:25:45.209Z,5.20
2019-01-13T13:28:15.022Z,4.58
2019-01-13T13:30:44.587Z,4.03
2019-01-13T13:33:14.180Z,4.62
2019-01-13T13:35:44.005Z,3.12
2019-01-13T13:38:13.931Z,3.10
2019-01-13T13:40:43.727Z,3.72
2019-01-13T13:43:13.364Z,3.35
2019-01-13T13:45:42.887Z,3.83
2019-01-13T13:48:12.743Z,3.40
2019-01-13T13:50:42.309Z,3.85
2019-01-13T13:53:12.131Z,4.05
2019-01-13T13:55:41.710Z,3.98
2019-01-13T13:58:11.327Z,4.10
2019-01-13T14:00:41.122Z,4.20
2019-01-13T14:03:10.875Z,3.70
2019-01-13T14:05:40.421Z,4.20
2019-01-13T14:08:10.111Z,4.60
2019-01-13T14:10:43.957Z,4.22
2019-01-13T14:13:13.976Z,4.17
2019-01-13T14:15:43.547Z,3.95
2019-01-13T14:18:13.107Z,3.80
2019-01-13T14:20:42.632Z,4.65
2019-01-13T14:23:12.458Z,4.70
2019-01-13T14:25:42.565Z,4.42
2019-01-13T14:28:12.143Z,4.12
2019-01-13T14:30:41.678Z,4.40
2019-01-13T14:33:11.529Z,4.37
2019-01-13T14:35:41.059Z,5.95
2019-01-13T14:38:11.011Z,5.30
2019-01-13T14:40:40.834Z,5.30
2019-01-13T14:43:10.422Z,5.70
2019-01-13T14:45:39.956Z,6.22
2019-01-13T14:48:09.551Z,5.50
2019-01-13T14:50:39.828Z,4.50
2019-01-13T14:53:09.741Z,4.00
2019-01-13T14:55:39.590Z,4.92
2019-01-13T14:58:09.262Z,4.03
2019-01-13T15:00:38.884Z,4.60
2019-01-13T15:03:08.451Z,4.15
2019-01-13T15:05:38.275Z,4.40
2019-01-13T15:08:07.820Z,4.05
2019-01-13T15:10:37.404Z,3.50
2019-01-13T15:13:06.996Z,3.08
2019-01-13T15:15:37.080Z,4.40
2019-01-13T15:18:06.901Z,3.08
2019-01-13T15:20:36.456Z,3.75
2019-01-13T15:23:06.499Z,3.30
2019-01-13T15:25:36.296Z,4.00
2019-01-13T15:28:05.924Z,4.67
2019-01-13T15:30:37.602Z,4.60
2019-01-13T15:33:08.736Z,4.62
2019-01-13T15:35:38.520Z,3.42
2019-01-13T15:38:09.544Z,4.00
2019-01-13T15:40:39.155Z,5.62
2019-01-13T15:43:08.969Z,3.47
2019-01-13T15:45:38.860Z,3.67
2019-01-13T15:48:09.069Z,2.65
2019-01-13T15:50:38.686Z,3.30
2019-01-13T15:53:08.483Z,3.50
2019-01-13T15:55:38.088Z,3.50
2019-01-13T15:58:08.138Z,3.70
2019-01-13T16:00:38.550Z,4.22
2019-01-13T16:03:09.149Z,4.20
2019-01-13T16:05:39.211Z,3.58
2019-01-13T16:08:09.208Z,4.15
2019-01-13T16:10:38.858Z,4.85
2019-01-13T16:13:08.760Z,4.00
2019-01-13T16:15:38.526Z,4.72
2019-01-13T16:18:09.307Z,5.35
2019-01-13T16:20:40.743Z,4.17
2019-01-13T16:23:11.024Z,8.38
2019-01-13T16:25:40.834Z,4.30
2019-01-13T16:28:10.444Z,7.03
2019-01-13T16:30:39.980Z,9.60
2019-01-13T16:33:10.107Z,4.28
2019-01-13T16:35:39.751Z,7.65
2019-01-13T16:38:12.300Z,9.00
2019-01-13T16:40:41.928Z,9.00
2019-01-13T16:43:11.745Z,7.12
2019-01-13T16:45:41.346Z,7.65
2019-01-13T16:48:11.220Z,7.05
2019-01-13T16:50:41.065Z,10.53
2019-01-13T16:53:10.876Z,9.38
2019-01-13T16:55:40.461Z,6.90
2019-01-13T16:58:10.033Z,8.10
2019-01-13T17:00:39.906Z,8.48
2019-01-13T17:03:09.460Z,12.23
2019-01-13T17:05:39.024Z,16.17
2019-01-13T17:08:08.954Z,16.17
2019-01-13T17:10:38.523Z,9.55
2019-01-13T17:13:08.377Z,10.63
2019-01-13T17:15:38.761Z,12.73
2019-01-13T17:18:09.383Z,14.23
2019-01-13T17:20:38.962Z,15.18
2019-01-13T17:23:08.529Z,14.45
2019-01-13T17:25:38.144Z,16.00
2019-01-13T17:28:07.979Z,10.50
2019-01-13T17:30:37.812Z,15.78
2019-01-13T17:33:07.621Z,9.58
2019-01-13T17:35:37.469Z,9.13
2019-01-13T17:38:07.347Z,6.20
2019-01-13T17:40:36.936Z,9.83
2019-01-13T17:43:06.651Z,6.72
2019-01-13T17:45:36.634Z,4.83
2019-01-13T17:48:07.668Z,4.28
2019-01-13T17:50:37.390Z,4.55
2019-01-13T17:53:08.606Z,5.83
2019-01-13T17:55:38.855Z,11.50
2019-01-13T17:58:09.576Z,6.42
2019-01-13T18:00:45.705Z,5.80
2019-01-13T18:03:18.236Z,10.75
2019-01-13T18:05:48.098Z,4.17
2019-01-13T18:08:17.643Z,8.80
2019-01-13T18:10:47.700Z,7.15
2019-01-13T18:13:17.568Z,8.58
2019-01-13T18:15:47.364Z,7.85
2019-01-13T18:18:17.239Z,9.80
2019-01-13T18:20:46.795Z,13.65
2019-01-13T18:23:16.658Z,10.20
2019-01-13T18:25:46.280Z,8.20
2019-01-13T18:28:15.850Z,10.58
2019-01-13T18:30:45.441Z,10.20
2019-01-13T18:33:15.039Z,13.85
2019-01-13T18:35:44.855Z,19.37
2019-01-13T18:38:14.447Z,9.15
2019-01-13T18:40:44.270Z,13.32
2019-01-13T18:43:14.150Z,8.20
2019-01-13T18:45:43.703Z,7.20
2019-01-13T18:48:13.285Z,9.28
2019-01-13T18:50:42.892Z,6.58
2019-01-13T18:53:14.130Z,9.83
2019-01-13T18:55:43.715Z,5.92
2019-01-13T18:58:13.286Z,1.55
2019-01-13T19:00:42.839Z,2.25
2019-01-13T19:03:12.587Z,5.78
2019-01-13T19:05:42.232Z,1.82
2019-01-13T19:08:11.800Z,3.30
2019-01-13T19:11:08.751Z,1.52
2019-01-13T19:14:06.500Z,2.65
2019-01-13T19:16:57.853Z,3.83
2019-01-13T19:19:27.493Z,2.80
2019-01-13T19:21:57.379Z,2.00
2019-01-13T19:24:26.971Z,4.42
2019-01-13T19:26:56.882Z,3.20
2019-01-13T19:29:26.727Z,3.42
2019-01-13T19:31:56.845Z,5.28
2019-01-13T19:34:26.420Z,5.75
2019-01-13T19:36:56.243Z,5.12
2019-01-13T19:39:25.772Z,11.53
2019-01-13T19:41:55.325Z,6.35
2019-01-13T19:44:25.172Z,6.03
2019-01-13T19:46:55.040Z,6.55
2019-01-13T19:49:24.848Z,10.15
2019-01-13T19:51:54.700Z,7.08
2019-01-13T19:54:24.490Z,10.80
2019-01-13T19:56:54.230Z,11.03
2019-01-13T19:59:23.804Z,10.23
2019-01-13T20:01:53.443Z,11.30
2019-01-13T20:04:23.050Z,15.85
2019-01-13T20:06:52.917Z,6.17
2019-01-13T20:09:22.472Z,9.20
2019-01-13T20:11:52.084Z,8.23
2019-01-13T20:14:21.636Z,20.40
2019-01-13T20:16:51.515Z,7.40
2019-01-13T20:19:21.110Z,9.43
2019-01-13T20:21:50.711Z,18.02
2019-01-13T20:24:20.580Z,8.93
2019-01-13T20:26:50.424Z,19.98
2019-01-13T20:29:20.174Z,6.78
2019-01-13T20:31:49.784Z,5.92
2019-01-13T20:34:19.308Z,2.80
2019-01-13T20:36:49.299Z,4.53
2019-01-13T20:39:18.831Z,5.65
2019-01-13T20:41:48.392Z,2.12
2019-01-13T20:44:18.311Z,2.98
2019-01-13T20:46:48.163Z,5.83
2019-01-13T20:49:17.688Z,3.42
2019-01-13T20:51:47.607Z,3.33
2019-01-13T20:54:17.140Z,5.90
2019-01-13T20:56:47.007Z,7.22
2019-01-13T20:59:16.598Z,6.28
2019-01-13T21:01:46.176Z,8.90
2019-01-13T21:04:16.004Z,6.47
2019-01-13T21:06:45.602Z,7.25
2019-01-13T21:09:15.401Z,8.43
2019-01-13T21:11:45.291Z,10.90
2019-01-13T21:14:14.966Z,7.62
2019-01-13T21:16:44.535Z,6.55
2019-01-13T21:19:14.103Z,7.75
2019-01-13T21:21:43.925Z,6.90
2019-01-13T21:24:13.778Z,11.28
2019-01-13T21:26:43.374Z,2.58
2019-01-13T21:29:12.905Z,3.40
2019-01-13T21:31:42.697Z,3.75
2019-01-13T21:34:12.825Z,9.28
2019-01-13T21:36:42.383Z,4.58
2019-01-13T21:39:12.481Z,3.80
2019-01-13T21:41:42.032Z,3.47
2019-01-13T21:44:11.912Z,10.15
2019-01-13T21:46:41.715Z,4.47
2019-01-13T21:49:11.663Z,5.75
2019-01-13T21:51:41.441Z,10.03
2019-01-13T21:54:11.213Z,11.50
2019-01-13T21:56:40.694Z,9.05
2019-01-13T21:59:10.265Z,12.43
2019-01-13T22:01:40.371Z,10.48
2019-01-13T22:04:09.989Z,10.82
2019-01-13T22:06:39.591Z,11.05
2019-01-13T22:09:12.176Z,15.05
2019-01-13T22:11:41.715Z,10.23
2019-01-13T22:14:12.336Z,15.15
2019-01-13T22:16:41.885Z,13.10
2019-01-13T22:19:11.417Z,8.30
2019-01-13T22:21:41.001Z,9.28
2019-01-13T22:24:11.381Z,9.53
2019-01-13T22:26:41.475Z,21.90
2019-01-13T22:29:11.338Z,13.55
2019-01-13T22:31:41.361Z,11.05
2019-01-13T22:34:11.229Z,8.60
2019-01-13T22:36:41.533Z,8.05
2019-01-13T22:39:11.124Z,13.50
2019-01-13T22:41:40.816Z,5.42
2019-01-13T22:44:10.666Z,12.07
2019-01-13T22:46:40.811Z,11.38
2019-01-13T22:49:10.671Z,10.63
2019-01-13T22:51:40.211Z,14.43
2019-01-13T22:54:10.058Z,11.33
2019-01-13T22:56:39.608Z,9.63
2019-01-13T22:59:09.235Z,10.03
2019-01-13T23:01:42.448Z,11.12
2019-01-13T23:04:16.195Z,6.92
2019-01-13T23:06:46.026Z,17.77
2019-01-13T23:09:15.695Z,10.08
2019-01-13T23:11:45.276Z,12.05
2019-01-13T23:14:14.854Z,13.08
2019-01-13T23:16:44.383Z,14.60
2019-01-13T23:19:14.120Z,14.33
2019-01-13T23:21:43.657Z,16.80
2019-01-13T23:24:13.495Z,8.78
2019-01-13T23:26:43.127Z,16.27
2019-01-13T23:29:13.807Z,11.08
2019-01-13T23:31:43.627Z,7.55
2019-01-13T23:34:13.207Z,15.30
2019-01-13T23:36:42.756Z,11.43
2019-01-13T23:39:12.595Z,15.40
2019-01-13T23:41:42.154Z,14.60
2019-01-13T23:44:11.740Z,14.18
2019-01-13T23:46:41.567Z,9.60
2019-01-13T23:49:11.494Z,19.37
2019-01-13T23:51:41.347Z,15.53
2019-01-13T23:54:10.909Z,15.50
2019-01-13T23:56:40.483Z,13.18
2019-01-13T23:59:10.082Z,17.45
